createdAt,value
2018-07-12T00:06:06.084Z,68.40
2018-07-12T00:10:08.565Z,68.40
2018-07-12T00:14:11.041Z,68.60
2018-07-12T00:18:13.516Z,68.60
2018-07-12T00:22:15.956Z,68.60
2018-07-12T00:26:18.443Z,68.70
2018-07-12T00:30:20.927Z,69.50
2018-07-12T00:34:23.407Z,68.80
2018-07-12T00:38:25.892Z,68.70
2018-07-12T00:42:28.929Z,69.50
2018-07-12T00:46:31.467Z,68.80
2018-07-12T00:50:33.936Z,69.00
2018-07-12T00:54:36.407Z,69.10
2018-07-12T00:58:38.871Z,69.10
2018-07-12T01:02:41.311Z,69.00
2018-07-12T01:06:43.800Z,68.90
2018-07-12T01:10:46.283Z,68.80
2018-07-12T01:14:48.760Z,68.90
2018-07-12T01:18:51.243Z,69.10
2018-07-12T01:22:53.703Z,69.10
2018-07-12T01:26:56.180Z,69.80
2018-07-12T01:30:58.973Z,69.30
2018-07-12T01:35:01.441Z,69.20
2018-07-12T01:39:05.078Z,69.50
2018-07-12T01:43:07.554Z,69.50
2018-07-12T01:47:10.125Z,69.10
2018-07-12T01:51:12.615Z,69.10
2018-07-12T01:55:15.083Z,69.40
2018-07-12T01:59:17.540Z,69.50
2018-07-12T02:03:20.021Z,69.30
2018-07-12T02:07:22.466Z,71.00
2018-07-12T02:11:25.009Z,70.60
2018-07-12T02:15:27.489Z,69.80
2018-07-12T02:19:30.076Z,70.30
2018-07-12T02:23:32.543Z,69.90
2018-07-12T02:27:35.016Z,71.60
2018-07-12T02:31:37.514Z,72.30
2018-07-12T02:35:39.992Z,71.10
2018-07-12T02:39:42.467Z,71.90
2018-07-12T02:43:44.930Z,70.70
2018-07-12T02:47:47.364Z,70.90
2018-07-12T02:51:49.831Z,71.70
2018-07-12T02:55:52.301Z,70.90
2018-07-12T02:59:54.781Z,70.50
2018-07-12T03:03:57.276Z,70.40
2018-07-12T03:07:59.716Z,70.30
2018-07-12T03:12:02.197Z,70.60
2018-07-12T03:16:04.672Z,70.40
2018-07-12T03:20:07.223Z,70.60
2018-07-12T03:24:09.705Z,70.20
2018-07-12T03:28:12.147Z,70.20
2018-07-12T03:32:14.619Z,70.00
2018-07-12T03:36:17.102Z,69.90
2018-07-12T03:40:19.577Z,69.80
2018-07-12T03:44:22.052Z,69.80
2018-07-12T03:48:24.488Z,69.70
2018-07-12T03:52:26.960Z,69.60
2018-07-12T03:56:29.432Z,69.60
2018-07-12T04:00:31.917Z,69.60
2018-07-12T04:04:34.466Z,69.60
2018-07-12T04:08:36.900Z,69.60
2018-07-12T04:12:39.712Z,69.60
2018-07-12T04:16:42.195Z,69.90
2018-07-12T04:20:44.668Z,69.90
2018-07-12T04:24:47.551Z,70.30
2018-07-12T04:28:50.159Z,70.10
2018-07-12T04:32:52.638Z,70.70
2018-07-12T04:36:55.112Z,71.70
2018-07-12T04:40:57.672Z,70.90
2018-07-12T04:45:00.145Z,71.00
2018-07-12T04:49:02.584Z,71.40
2018-07-12T04:53:05.056Z,71.00
2018-07-12T04:57:07.520Z,71.50
2018-07-12T05:01:10.003Z,71.80
2018-07-12T05:05:12.476Z,72.00
2018-07-12T05:09:14.915Z,72.50
2018-07-12T05:13:17.400Z,71.90
2018-07-12T05:17:19.879Z,73.50
2018-07-12T05:21:22.350Z,71.60
2018-07-12T05:25:24.890Z,73.50
2018-07-12T05:29:27.327Z,72.10
2018-07-12T05:33:29.798Z,73.40
2018-07-12T05:37:33.605Z,75.00
2018-07-12T05:41:37.268Z,74.00
2018-07-12T05:45:40.938Z,74.80
2018-07-12T05:49:44.564Z,74.80
2018-07-12T05:53:48.251Z,73.20
2018-07-12T05:57:51.992Z,73.10
2018-07-12T06:02:06.827Z,73.80
2018-07-12T06:06:10.496Z,74.60
2018-07-12T06:10:14.148Z,74.40
2018-07-12T06:14:17.828Z,73.50
2018-07-12T06:18:21.511Z,73.10
2018-07-12T06:22:25.204Z,72.90
2018-07-12T06:26:28.928Z,73.30
2018-07-12T06:30:32.573Z,72.90
2018-07-12T06:34:36.544Z,72.90
2018-07-12T06:38:40.228Z,74.60
2018-07-12T06:42:43.904Z,76.30
2018-07-12T06:46:47.654Z,77.00
2018-07-12T06:50:51.338Z,74.90
2018-07-12T06:54:55.025Z,75.30
2018-07-12T06:58:58.707Z,74.50
2018-07-12T07:03:02.399Z,75.00
2018-07-12T07:07:06.230Z,77.00
2018-07-12T07:11:10.066Z,76.50
2018-07-12T07:15:13.744Z,78.30
2018-07-12T07:19:17.419Z,78.20
2018-07-12T07:23:21.087Z,77.80
2018-07-12T07:27:24.768Z,76.10
2018-07-12T07:31:28.443Z,71.80
2018-07-12T07:35:32.095Z,70.50
2018-07-12T07:39:35.780Z,69.10
2018-07-12T07:43:39.455Z,68.50
2018-07-12T07:47:43.159Z,67.70
2018-07-12T07:51:46.832Z,66.60
2018-07-12T07:55:50.583Z,66.30
2018-07-12T07:59:54.264Z,65.90
2018-07-12T08:03:57.931Z,63.90
2018-07-12T08:08:01.627Z,62.90
2018-07-12T08:12:05.297Z,62.20
2018-07-12T08:16:09.055Z,60.00
2018-07-12T08:20:12.792Z,58.90
2018-07-12T08:24:16.601Z,59.90
2018-07-12T08:28:23.948Z,59.10
2018-07-12T08:32:27.629Z,61.20
2018-07-12T08:36:31.280Z,57.80
2018-07-12T08:40:34.995Z,59.80
2018-07-12T08:44:38.679Z,58.30
2018-07-12T08:48:42.324Z,59.20
2018-07-12T08:52:45.993Z,57.10
2018-07-12T08:56:49.647Z,58.00
2018-07-12T09:00:53.335Z,57.80
2018-07-12T09:04:57.001Z,56.00
2018-07-12T09:09:00.751Z,55.50
2018-07-12T09:13:13.076Z,55.70
2018-07-12T09:17:16.956Z,56.10
2018-07-12T09:21:23.852Z,57.00
2018-07-12T09:25:27.509Z,57.50
2018-07-12T09:29:31.200Z,56.90
2018-07-12T09:33:34.847Z,56.10
2018-07-12T09:37:38.545Z,56.30
2018-07-12T09:41:42.191Z,56.40
2018-07-12T09:45:45.850Z,57.50
2018-07-12T09:49:49.516Z,56.90
2018-07-12T09:53:53.176Z,57.70
2018-07-12T09:58:10.020Z,59.10
2018-07-12T10:02:18.908Z,59.50
2018-07-12T10:06:27.911Z,58.20
2018-07-12T10:10:31.722Z,58.60
2018-07-12T10:14:40.566Z,58.20
2018-07-12T10:18:44.303Z,59.10
2018-07-12T10:22:47.935Z,59.50
2018-07-12T10:26:51.588Z,58.80
2018-07-12T10:30:55.252Z,58.90
2018-07-12T10:34:58.934Z,59.30
2018-07-12T10:39:02.743Z,57.20
2018-07-12T10:43:06.404Z,58.90
2018-07-12T10:47:10.062Z,59.30
2018-07-12T10:51:13.749Z,59.30
2018-07-12T10:55:17.480Z,59.10
2018-07-12T10:59:21.208Z,58.00
2018-07-12T11:03:24.882Z,57.50
2018-07-12T11:07:28.560Z,56.70
2018-07-12T11:11:32.211Z,59.00
2018-07-12T11:15:35.859Z,59.40
2018-07-12T11:19:39.501Z,59.20
2018-07-12T11:23:43.174Z,59.60
2018-07-12T11:27:46.830Z,59.10
2018-07-12T11:31:50.472Z,59.60
2018-07-12T11:35:54.116Z,58.50
2018-07-12T11:39:57.774Z,55.40
2018-07-12T11:44:01.452Z,58.20
2018-07-12T11:48:05.092Z,57.10
2018-07-12T11:52:08.866Z,57.70
2018-07-12T11:56:12.564Z,57.40
2018-07-12T12:00:16.200Z,57.70
2018-07-12T12:04:19.810Z,56.90
2018-07-12T12:08:24.130Z,58.40
2018-07-12T12:12:27.882Z,58.60
2018-07-12T12:16:31.535Z,58.40
2018-07-12T12:20:35.964Z,56.20
2018-07-12T12:24:39.629Z,56.50
2018-07-12T12:28:43.283Z,56.60
2018-07-12T12:32:46.990Z,57.30
2018-07-12T12:37:00.728Z,54.80
2018-07-12T12:41:04.700Z,56.40
2018-07-12T12:45:08.311Z,56.70
2018-07-12T12:49:12.220Z,56.00
2018-07-12T12:53:15.895Z,56.10
2018-07-12T12:57:19.935Z,56.90
2018-07-12T13:01:23.597Z,55.50
2018-07-12T13:05:27.229Z,55.90
2018-07-12T13:09:30.875Z,56.40
2018-07-12T13:13:34.515Z,56.50
2018-07-12T13:17:38.179Z,55.80
2018-07-12T13:21:41.957Z,56.60
2018-07-12T13:25:45.668Z,54.70
2018-07-12T13:29:49.288Z,55.10
2018-07-12T13:33:52.943Z,53.40
2018-07-12T13:37:56.607Z,55.70
2018-07-12T13:42:00.315Z,53.60
2018-07-12T13:46:03.939Z,54.10
2018-07-12T13:50:07.608Z,54.50
2018-07-12T13:54:11.359Z,54.80
2018-07-12T13:58:15.008Z,54.10
2018-07-12T14:02:18.675Z,54.00
2018-07-12T14:06:22.315Z,52.50
2018-07-12T14:10:25.984Z,54.90
2018-07-12T14:14:29.645Z,53.60
2018-07-12T14:18:33.300Z,52.70
2018-07-12T14:22:36.995Z,54.10
2018-07-12T14:26:40.617Z,53.00
2018-07-12T14:30:44.263Z,54.50
2018-07-12T14:34:47.920Z,54.30
2018-07-12T14:38:51.583Z,53.20
2018-07-12T14:42:55.228Z,55.00
2018-07-12T14:46:58.914Z,53.90
2018-07-12T14:51:02.560Z,54.40
2018-07-12T14:55:06.242Z,53.80
2018-07-12T14:59:09.899Z,54.00
2018-07-12T15:03:13.559Z,54.70
2018-07-12T15:07:18.330Z,54.70
2018-07-12T15:11:23.282Z,54.80
2018-07-12T15:15:27.984Z,54.90
2018-07-12T15:19:32.696Z,54.20
2018-07-12T15:23:36.414Z,53.80
2018-07-12T15:27:40.057Z,54.90
2018-07-12T15:31:43.763Z,55.20
2018-07-12T15:35:47.411Z,54.30
2018-07-12T15:39:51.064Z,54.50
2018-07-12T15:43:54.759Z,55.60
2018-07-12T15:52:01.728Z,55.60
2018-07-12T15:56:05.613Z,55.40
2018-07-12T16:00:09.305Z,55.20
2018-07-12T16:04:12.963Z,53.90
2018-07-12T16:08:16.594Z,55.20
2018-07-12T16:12:20.345Z,54.40
2018-07-12T16:16:24.016Z,55.20
2018-07-12T16:20:27.700Z,55.10
2018-07-12T16:24:31.399Z,55.30
2018-07-12T16:28:35.028Z,54.90
2018-07-12T16:32:38.673Z,54.50
2018-07-12T16:36:42.363Z,54.90
2018-07-12T16:40:46.062Z,54.50
2018-07-12T16:44:49.723Z,54.60
2018-07-12T16:48:53.363Z,54.30
2018-07-12T16:52:57.036Z,53.80
2018-07-12T16:57:00.742Z,54.30
2018-07-12T17:01:04.426Z,55.10
2018-07-12T17:05:08.311Z,53.40
2018-07-12T17:09:12.091Z,54.10
2018-07-12T17:13:15.875Z,54.40
2018-07-12T17:17:19.633Z,55.20
2018-07-12T17:21:23.438Z,54.90
2018-07-12T17:25:27.215Z,54.40
2018-07-12T17:29:30.870Z,54.70
2018-07-12T17:33:34.525Z,54.90
2018-07-12T17:37:38.197Z,54.60
2018-07-12T17:41:41.977Z,55.20
2018-07-12T17:45:45.655Z,55.70
2018-07-12T17:49:49.307Z,55.40
2018-07-12T17:53:52.964Z,55.20
2018-07-12T17:57:56.681Z,55.70
2018-07-12T18:02:00.389Z,56.00
2018-07-12T18:06:04.053Z,56.10
2018-07-12T18:10:07.718Z,56.10
2018-07-12T18:14:11.448Z,56.20
2018-07-12T18:18:15.014Z,56.40
2018-07-12T18:22:18.757Z,56.60
2018-07-12T18:26:22.364Z,56.50
2018-07-12T18:30:26.050Z,56.60
2018-07-12T18:34:29.675Z,56.80
2018-07-12T18:38:33.362Z,56.90
2018-07-12T18:42:37.047Z,57.10
2018-07-12T18:46:40.703Z,57.10
2018-07-12T18:50:44.383Z,56.90
2018-07-12T18:54:48.040Z,57.50
2018-07-12T18:58:51.683Z,57.00
2018-07-12T19:02:55.380Z,57.00
2018-07-12T19:06:59.032Z,56.90
2018-07-12T19:11:02.709Z,56.90
2018-07-12T19:15:06.465Z,56.90
2018-07-12T19:19:10.048Z,57.00
2018-07-12T19:23:13.710Z,57.00
2018-07-12T19:27:17.376Z,57.10
2018-07-12T19:31:21.059Z,57.00
2018-07-12T19:35:24.680Z,57.10
2018-07-12T19:39:28.340Z,57.20
2018-07-12T19:43:32.003Z,57.20
2018-07-12T19:47:35.695Z,57.30
2018-07-12T19:51:39.424Z,57.40
2018-07-12T19:55:43.075Z,57.20
2018-07-12T19:59:46.725Z,57.30
2018-07-12T20:03:50.432Z,57.40
2018-07-12T20:07:54.076Z,57.40
2018-07-12T20:11:57.729Z,57.50
2018-07-12T20:16:01.392Z,57.50
2018-07-12T20:20:05.089Z,57.60
2018-07-12T20:24:09.227Z,57.60
2018-07-12T20:28:12.899Z,57.70
2018-07-12T20:32:16.538Z,57.70
2018-07-12T20:36:20.289Z,57.80
2018-07-12T20:40:23.930Z,58.40
2018-07-12T20:44:27.607Z,57.90
2018-07-12T20:48:31.277Z,57.90
2018-07-12T20:52:35.018Z,58.00
2018-07-12T20:56:38.712Z,58.10
2018-07-12T21:00:42.377Z,58.10
2018-07-12T21:04:46.105Z,58.60
2018-07-12T21:08:49.749Z,58.60
2018-07-12T21:12:53.421Z,59.20
2018-07-12T21:16:57.184Z,59.40
2018-07-12T21:25:04.715Z,58.80
2018-07-12T21:29:08.392Z,58.70
2018-07-12T21:33:12.142Z,58.70
2018-07-12T21:37:15.721Z,58.80
2018-07-12T21:41:19.371Z,58.80
2018-07-12T21:45:23.096Z,58.90
2018-07-12T21:49:26.746Z,59.40
2018-07-12T21:53:30.409Z,59.00
2018-07-12T21:57:34.121Z,59.10
2018-07-12T22:01:37.749Z,59.10
2018-07-12T22:05:41.409Z,59.30
2018-07-12T22:09:45.134Z,59.20
2018-07-12T22:13:48.809Z,59.30
2018-07-12T22:17:52.449Z,60.50
2018-07-12T22:21:56.210Z,60.50
2018-07-12T22:25:59.868Z,59.90
2018-07-12T22:30:03.552Z,61.00
2018-07-12T22:34:07.218Z,60.30
2018-07-12T22:38:10.901Z,59.80
2018-07-12T22:42:14.542Z,60.20
2018-07-12T22:46:18.199Z,60.10
2018-07-12T22:50:21.915Z,60.10
2018-07-12T22:54:25.684Z,60.00
2018-07-12T22:58:29.336Z,59.90
2018-07-12T23:02:32.949Z,60.60
2018-07-12T23:06:36.698Z,59.70
2018-07-12T23:10:40.325Z,59.70
2018-07-12T23:14:43.976Z,59.70
2018-07-12T23:18:47.631Z,60.20
2018-07-12T23:22:51.299Z,61.40
2018-07-12T23:26:54.970Z,61.00
2018-07-12T23:30:58.644Z,61.00
2018-07-12T23:35:02.315Z,60.20
2018-07-12T23:39:07.360Z,60.10
2018-07-12T23:43:10.981Z,60.00
2018-07-12T23:47:14.636Z,59.90
2018-07-12T23:51:18.309Z,59.90
2018-07-12T23:55:21.998Z,59.80
2018-07-12T23:59:25.657Z,59.80
